sensor_id;sensor_type;location;lat;lon;timestamp;P1;durP1;ratioP1;P2;durP2;ratioP2
69854;SDS011;57146;48.140;16.304;2022-12-16T00:01:44;54.47;;;17.58;;
69854;SDS011;57146;48.140;16.304;2022-12-16T00:04:10;61.17;;;17.90;;
69854;SDS011;57146;48.140;16.304;2022-12-16T00:06:37;56.27;;;17.80;;
69854;SDS011;57146;48.140;16.304;2022-12-16T00:09:04;58.53;;;17.92;;
69854;SDS011;57146;48.140;16.304;2022-12-16T00:11:31;57.75;;;17.90;;
69854;SDS011;57146;48.140;16.304;2022-12-16T00:13:58;66.15;;;21.15;;
69854;SDS011;57146;48.140;16.304;2022-12-16T00:16:25;59.97;;;19.75;;
69854;SDS011;57146;48.140;16.304;2022-12-16T00:18:52;52.47;;;17.17;;
69854;SDS011;57146;48.140;16.304;2022-12-16T00:21:20;54.25;;;16.63;;
69854;SDS011;57146;48.140;16.304;2022-12-16T00:23:46;50.15;;;16.70;;
69854;SDS011;57146;48.140;16.304;2022-12-16T00:26:13;53.42;;;17.52;;
69854;SDS011;57146;48.140;16.304;2022-12-16T00:28:40;56.03;;;17.13;;
69854;SDS011;57146;48.140;16.304;2022-12-16T00:31:07;52.43;;;15.70;;
69854;SDS011;57146;48.140;16.304;2022-12-16T00:33:34;55.50;;;16.67;;
69854;SDS011;57146;48.140;16.304;2022-12-16T00:36:01;46.80;;;14.10;;
69854;SDS011;57146;48.140;16.304;2022-12-16T00:38:29;51.63;;;15.38;;
69854;SDS011;57146;48.140;16.304;2022-12-16T00:40:56;45.65;;;14.05;;
69854;SDS011;57146;48.140;16.304;2022-12-16T00:43:23;46.80;;;13.93;;
69854;SDS011;57146;48.140;16.304;2022-12-16T00:45:50;43.13;;;13.48;;
69854;SDS011;57146;48.140;16.304;2022-12-16T00:48:17;45.70;;;13.75;;
69854;SDS011;57146;48.140;16.304;2022-12-16T00:50:48;44.00;;;13.57;;
69854;SDS011;57146;48.140;16.304;2022-12-16T00:53:17;41.03;;;12.77;;
69854;SDS011;57146;48.140;16.304;2022-12-16T00:55:45;41.43;;;13.00;;
69854;SDS011;57146;48.140;16.304;2022-12-16T00:58:12;38.25;;;12.77;;
69854;SDS011;57146;48.140;16.304;2022-12-16T01:00:39;37.15;;;13.07;;
69854;SDS011;57146;48.140;16.304;2022-12-16T01:03:06;38.88;;;12.95;;
69854;SDS011;57146;48.140;16.304;2022-12-16T01:05:36;37.35;;;11.63;;
69854;SDS011;57146;48.140;16.304;2022-12-16T01:08:03;37.13;;;12.07;;
69854;SDS011;57146;48.140;16.304;2022-12-16T01:10:31;36.30;;;12.30;;
69854;SDS011;57146;48.140;16.304;2022-12-16T01:12:58;37.72;;;12.38;;
69854;SDS011;57146;48.140;16.304;2022-12-16T01:15:25;37.33;;;12.35;;
69854;SDS011;57146;48.140;16.304;2022-12-16T01:17:52;41.10;;;12.43;;
69854;SDS011;57146;48.140;16.304;2022-12-16T01:20:20;34.00;;;11.13;;
69854;SDS011;57146;48.140;16.304;2022-12-16T01:22:47;39.15;;;11.60;;
69854;SDS011;57146;48.140;16.304;2022-12-16T01:25:14;37.58;;;12.10;;
69854;SDS011;57146;48.140;16.304;2022-12-16T01:27:41;36.92;;;11.93;;
69854;SDS011;57146;48.140;16.304;2022-12-16T01:30:09;37.90;;;11.82;;
69854;SDS011;57146;48.140;16.304;2022-12-16T01:32:39;35.47;;;11.27;;
69854;SDS011;57146;48.140;16.304;2022-12-16T01:35:06;35.33;;;11.13;;
69854;SDS011;57146;48.140;16.304;2022-12-16T01:37:53;33.80;;;10.82;;
69854;SDS011;57146;48.140;16.304;2022-12-16T01:40:21;31.70;;;10.88;;
69854;SDS011;57146;48.140;16.304;2022-12-16T01:42:50;30.30;;;10.75;;
69854;SDS011;57146;48.140;16.304;2022-12-16T01:45:35;27.43;;;9.10;;
69854;SDS011;57146;48.140;16.304;2022-12-16T01:48:13;28.50;;;9.38;;
69854;SDS011;57146;48.140;16.304;2022-12-16T01:50:42;26.83;;;9.70;;
69854;SDS011;57146;48.140;16.304;2022-12-16T01:53:09;24.80;;;9.35;;
69854;SDS011;57146;48.140;16.304;2022-12-16T01:55:37;25.42;;;9.65;;
69854;SDS011;57146;48.140;16.304;2022-12-16T01:58:13;24.43;;;9.23;;
69854;SDS011;57146;48.140;16.304;2022-12-16T02:00:44;25.42;;;9.43;;
69854;SDS011;57146;48.140;16.304;2022-12-16T02:03:11;25.45;;;9.63;;
69854;SDS011;57146;48.140;16.304;2022-12-16T02:05:38;25.40;;;9.75;;
69854;SDS011;57146;48.140;16.304;2022-12-16T02:18:20;26.70;;;9.50;;
69854;SDS011;57146;48.140;16.304;2022-12-16T02:31:53;28.33;;;10.70;;
69854;SDS011;57146;48.140;16.304;2022-12-16T02:35:28;31.15;;;11.20;;
69854;SDS011;57146;48.140;16.304;2022-12-16T02:37:42;29.33;;;11.07;;
69854;SDS011;57146;48.140;16.304;2022-12-16T02:43:28;28.88;;;10.70;;
69854;SDS011;57146;48.140;16.304;2022-12-16T02:46:17;28.20;;;11.00;;
69854;SDS011;57146;48.140;16.304;2022-12-16T02:48:46;29.55;;;11.10;;
69854;SDS011;57146;48.140;16.304;2022-12-16T02:51:13;30.43;;;11.13;;
69854;SDS011;57146;48.140;16.304;2022-12-16T02:53:41;32.10;;;11.10;;
69854;SDS011;57146;48.140;16.304;2022-12-16T03:04:20;28.13;;;9.70;;
69854;SDS011;57146;48.140;16.304;2022-12-16T03:06:56;26.67;;;9.65;;
69854;SDS011;57146;48.140;16.304;2022-12-16T03:09:27;24.92;;;8.77;;
69854;SDS011;57146;48.140;16.304;2022-12-16T03:11:58;27.35;;;9.27;;
69854;SDS011;57146;48.140;16.304;2022-12-16T03:14:29;23.40;;;8.45;;
69854;SDS011;57146;48.140;16.304;2022-12-16T03:16:59;22.53;;;8.30;;
69854;SDS011;57146;48.140;16.304;2022-12-16T03:19:28;21.88;;;8.40;;
69854;SDS011;57146;48.140;16.304;2022-12-16T03:24:29;22.73;;;8.60;;
69854;SDS011;57146;48.140;16.304;2022-12-16T03:29:57;21.30;;;8.43;;
69854;SDS011;57146;48.140;16.304;2022-12-16T03:37:24;21.35;;;7.88;;
69854;SDS011;57146;48.140;16.304;2022-12-16T03:39:56;20.05;;;7.60;;
69854;SDS011;57146;48.140;16.304;2022-12-16T03:42:24;23.40;;;8.33;;
69854;SDS011;57146;48.140;16.304;2022-12-16T03:44:52;20.90;;;7.72;;
69854;SDS011;57146;48.140;16.304;2022-12-16T03:47:19;22.85;;;7.80;;
69854;SDS011;57146;48.140;16.304;2022-12-16T03:49:49;19.73;;;7.57;;
69854;SDS011;57146;48.140;16.304;2022-12-16T03:52:16;20.88;;;7.63;;
69854;SDS011;57146;48.140;16.304;2022-12-16T03:54:43;21.23;;;7.60;;
69854;SDS011;57146;48.140;16.304;2022-12-16T03:57:10;19.23;;;6.85;;
69854;SDS011;57146;48.140;16.304;2022-12-16T03:59:41;19.20;;;7.28;;
69854;SDS011;57146;48.140;16.304;2022-12-16T04:02:08;20.05;;;7.25;;
69854;SDS011;57146;48.140;16.304;2022-12-16T04:04:36;21.95;;;8.10;;
69854;SDS011;57146;48.140;16.304;2022-12-16T04:07:03;21.63;;;8.13;;
69854;SDS011;57146;48.140;16.304;2022-12-16T04:09:29;20.67;;;7.47;;
69854;SDS011;57146;48.140;16.304;2022-12-16T04:11:56;20.42;;;7.57;;
69854;SDS011;57146;48.140;16.304;2022-12-16T04:14:23;18.52;;;7.03;;
69854;SDS011;57146;48.140;16.304;2022-12-16T04:16:51;16.85;;;6.40;;
69854;SDS011;57146;48.140;16.304;2022-12-16T04:19:22;17.30;;;5.90;;
69854;SDS011;57146;48.140;16.304;2022-12-16T04:21:52;14.80;;;6.18;;
69854;SDS011;57146;48.140;16.304;2022-12-16T04:24:21;12.55;;;4.32;;
69854;SDS011;57146;48.140;16.304;2022-12-16T04:26:53;10.73;;;3.47;;
69854;SDS011;57146;48.140;16.304;2022-12-16T04:29:20;9.15;;;3.50;;
69854;SDS011;57146;48.140;16.304;2022-12-16T04:31:47;6.90;;;2.80;;
69854;SDS011;57146;48.140;16.304;2022-12-16T04:34:14;6.93;;;2.78;;
69854;SDS011;57146;48.140;16.304;2022-12-16T04:36:41;7.18;;;2.80;;
69854;SDS011;57146;48.140;16.304;2022-12-16T04:39:08;7.88;;;2.92;;
69854;SDS011;57146;48.140;16.304;2022-12-16T04:41:35;6.68;;;2.80;;
69854;SDS011;57146;48.140;16.304;2022-12-16T04:44:02;7.17;;;3.07;;
69854;SDS011;57146;48.140;16.304;2022-12-16T04:46:29;6.72;;;2.53;;
69854;SDS011;57146;48.140;16.304;2022-12-16T04:48:56;6.53;;;2.38;;
69854;SDS011;57146;48.140;16.304;2022-12-16T04:51:23;6.97;;;2.65;;
69854;SDS011;57146;48.140;16.304;2022-12-16T04:53:50;6.65;;;2.47;;
69854;SDS011;57146;48.140;16.304;2022-12-16T04:56:20;5.63;;;2.30;;
69854;SDS011;57146;48.140;16.304;2022-12-16T04:59:13;9.82;;;2.42;;
69854;SDS011;57146;48.140;16.304;2022-12-16T05:01:40;12.10;;;2.65;;
69854;SDS011;57146;48.140;16.304;2022-12-16T05:04:07;6.18;;;2.30;;
69854;SDS011;57146;48.140;16.304;2022-12-16T05:06:34;6.68;;;2.42;;
69854;SDS011;57146;48.140;16.304;2022-12-16T05:09:01;6.10;;;2.37;;
69854;SDS011;57146;48.140;16.304;2022-12-16T05:11:28;6.38;;;2.30;;
69854;SDS011;57146;48.140;16.304;2022-12-16T05:13:56;6.78;;;2.50;;
69854;SDS011;57146;48.140;16.304;2022-12-16T05:16:22;6.80;;;2.58;;
69854;SDS011;57146;48.140;16.304;2022-12-16T05:18:49;7.18;;;2.70;;
69854;SDS011;57146;48.140;16.304;2022-12-16T05:21:16;6.90;;;2.77;;
69854;SDS011;57146;48.140;16.304;2022-12-16T05:23:43;6.40;;;2.50;;
69854;SDS011;57146;48.140;16.304;2022-12-16T05:26:11;7.68;;;2.80;;
69854;SDS011;57146;48.140;16.304;2022-12-16T05:28:37;6.43;;;2.35;;
69854;SDS011;57146;48.140;16.304;2022-12-16T05:31:04;6.20;;;2.53;;
69854;SDS011;57146;48.140;16.304;2022-12-16T05:33:31;5.63;;;2.20;;
69854;SDS011;57146;48.140;16.304;2022-12-16T05:35:59;7.40;;;2.90;;
69854;SDS011;57146;48.140;16.304;2022-12-16T05:38:26;7.00;;;2.78;;
69854;SDS011;57146;48.140;16.304;2022-12-16T05:40:53;7.60;;;2.78;;
69854;SDS011;57146;48.140;16.304;2022-12-16T05:43:20;7.13;;;3.03;;
69854;SDS011;57146;48.140;16.304;2022-12-16T05:45:47;9.13;;;3.60;;
69854;SDS011;57146;48.140;16.304;2022-12-16T05:48:14;9.45;;;4.03;;
69854;SDS011;57146;48.140;16.304;2022-12-16T05:50:40;9.05;;;3.53;;
69854;SDS011;57146;48.140;16.304;2022-12-16T05:53:08;9.73;;;3.90;;
69854;SDS011;57146;48.140;16.304;2022-12-16T05:55:35;8.73;;;3.80;;
69854;SDS011;57146;48.140;16.304;2022-12-16T05:58:02;8.97;;;3.93;;
69854;SDS011;57146;48.140;16.304;2022-12-16T06:00:28;9.18;;;3.70;;
69854;SDS011;57146;48.140;16.304;2022-12-16T06:02:55;9.35;;;3.75;;
69854;SDS011;57146;48.140;16.304;2022-12-16T06:05:22;7.88;;;3.53;;
69854;SDS011;57146;48.140;16.304;2022-12-16T06:07:50;8.93;;;3.80;;
69854;SDS011;57146;48.140;16.304;2022-12-16T06:10:17;9.67;;;4.30;;
69854;SDS011;57146;48.140;16.304;2022-12-16T06:12:45;9.52;;;3.95;;
69854;SDS011;57146;48.140;16.304;2022-12-16T06:15:13;9.15;;;3.47;;
69854;SDS011;57146;48.140;16.304;2022-12-16T06:17:46;8.57;;;3.13;;
69854;SDS011;57146;48.140;16.304;2022-12-16T06:20:13;9.70;;;4.28;;
69854;SDS011;57146;48.140;16.304;2022-12-16T06:22:40;11.47;;;4.40;;
69854;SDS011;57146;48.140;16.304;2022-12-16T06:25:07;10.20;;;3.85;;
69854;SDS011;57146;48.140;16.304;2022-12-16T06:27:34;10.35;;;4.03;;
69854;SDS011;57146;48.140;16.304;2022-12-16T06:30:01;10.13;;;3.95;;
69854;SDS011;57146;48.140;16.304;2022-12-16T06:32:28;12.07;;;4.40;;
69854;SDS011;57146;48.140;16.304;2022-12-16T06:34:54;10.63;;;4.20;;
69854;SDS011;57146;48.140;16.304;2022-12-16T06:37:21;10.55;;;3.97;;
69854;SDS011;57146;48.140;16.304;2022-12-16T06:39:48;9.70;;;3.97;;
69854;SDS011;57146;48.140;16.304;2022-12-16T06:42:19;10.90;;;4.05;;
69854;SDS011;57146;48.140;16.304;2022-12-16T06:44:45;10.60;;;4.10;;
69854;SDS011;57146;48.140;16.304;2022-12-16T06:47:12;9.77;;;3.93;;
69854;SDS011;57146;48.140;16.304;2022-12-16T06:49:39;12.82;;;4.20;;
69854;SDS011;57146;48.140;16.304;2022-12-16T06:52:07;13.82;;;4.43;;
69854;SDS011;57146;48.140;16.304;2022-12-16T06:54:34;10.68;;;4.03;;
69854;SDS011;57146;48.140;16.304;2022-12-16T06:57:01;10.52;;;3.90;;
69854;SDS011;57146;48.140;16.304;2022-12-16T06:59:28;9.77;;;3.83;;
69854;SDS011;57146;48.140;16.304;2022-12-16T07:01:54;10.05;;;3.97;;
69854;SDS011;57146;48.140;16.304;2022-12-16T07:04:21;8.45;;;3.40;;
69854;SDS011;57146;48.140;16.304;2022-12-16T07:06:48;9.43;;;3.53;;
69854;SDS011;57146;48.140;16.304;2022-12-16T07:09:15;10.38;;;3.70;;
69854;SDS011;57146;48.140;16.304;2022-12-16T07:11:42;9.43;;;3.80;;
69854;SDS011;57146;48.140;16.304;2022-12-16T07:14:09;9.25;;;3.70;;
69854;SDS011;57146;48.140;16.304;2022-12-16T07:16:36;8.57;;;3.17;;
69854;SDS011;57146;48.140;16.304;2022-12-16T07:19:03;9.38;;;3.42;;
69854;SDS011;57146;48.140;16.304;2022-12-16T07:21:30;9.20;;;3.40;;
69854;SDS011;57146;48.140;16.304;2022-12-16T07:23:57;12.63;;;4.10;;
69854;SDS011;57146;48.140;16.304;2022-12-16T07:26:24;10.60;;;3.53;;
69854;SDS011;57146;48.140;16.304;2022-12-16T07:28:51;13.77;;;5.03;;
69854;SDS011;57146;48.140;16.304;2022-12-16T07:31:17;15.43;;;5.82;;
69854;SDS011;57146;48.140;16.304;2022-12-16T07:33:44;18.70;;;6.30;;
69854;SDS011;57146;48.140;16.304;2022-12-16T07:36:11;17.07;;;6.27;;
69854;SDS011;57146;48.140;16.304;2022-12-16T07:38:38;17.52;;;6.65;;
69854;SDS011;57146;48.140;16.304;2022-12-16T07:41:05;18.77;;;6.50;;
69854;SDS011;57146;48.140;16.304;2022-12-16T07:43:32;18.05;;;6.80;;
69854;SDS011;57146;48.140;16.304;2022-12-16T07:45:59;19.00;;;6.78;;
69854;SDS011;57146;48.140;16.304;2022-12-16T07:48:26;17.80;;;6.93;;
69854;SDS011;57146;48.140;16.304;2022-12-16T07:50:53;16.70;;;6.93;;
69854;SDS011;57146;48.140;16.304;2022-12-16T07:53:21;17.33;;;6.78;;
69854;SDS011;57146;48.140;16.304;2022-12-16T07:55:54;18.20;;;7.00;;
69854;SDS011;57146;48.140;16.304;2022-12-16T07:58:21;16.25;;;6.38;;
69854;SDS011;57146;48.140;16.304;2022-12-16T08:00:48;19.80;;;7.63;;
69854;SDS011;57146;48.140;16.304;2022-12-16T08:03:16;18.00;;;7.18;;
69854;SDS011;57146;48.140;16.304;2022-12-16T08:05:43;17.73;;;7.15;;
69854;SDS011;57146;48.140;16.304;2022-12-16T08:08:10;18.15;;;6.95;;
69854;SDS011;57146;48.140;16.304;2022-12-16T08:10:37;19.67;;;7.68;;
69854;SDS011;57146;48.140;16.304;2022-12-16T08:13:04;19.47;;;7.10;;
69854;SDS011;57146;48.140;16.304;2022-12-16T08:15:31;17.27;;;6.63;;
69854;SDS011;57146;48.140;16.304;2022-12-16T08:17:58;19.15;;;7.25;;
69854;SDS011;57146;48.140;16.304;2022-12-16T08:20:25;17.48;;;7.03;;
69854;SDS011;57146;48.140;16.304;2022-12-16T08:22:52;16.83;;;6.38;;
69854;SDS011;57146;48.140;16.304;2022-12-16T08:25:20;16.67;;;6.23;;
69854;SDS011;57146;48.140;16.304;2022-12-16T08:27:52;15.30;;;5.72;;
69854;SDS011;57146;48.140;16.304;2022-12-16T08:30:21;15.00;;;5.45;;
69854;SDS011;57146;48.140;16.304;2022-12-16T08:32:48;14.32;;;5.13;;
69854;SDS011;57146;48.140;16.304;2022-12-16T08:35:19;14.27;;;5.07;;
69854;SDS011;57146;48.140;16.304;2022-12-16T08:37:46;15.50;;;5.57;;
69854;SDS011;57146;48.140;16.304;2022-12-16T08:40:13;14.07;;;4.90;;
69854;SDS011;57146;48.140;16.304;2022-12-16T08:43:00;12.65;;;4.82;;
69854;SDS011;57146;48.140;16.304;2022-12-16T08:45:30;11.20;;;3.90;;
69854;SDS011;57146;48.140;16.304;2022-12-16T08:47:57;11.55;;;4.00;;
69854;SDS011;57146;48.140;16.304;2022-12-16T08:50:24;12.17;;;4.17;;
69854;SDS011;57146;48.140;16.304;2022-12-16T08:52:51;13.63;;;4.60;;
69854;SDS011;57146;48.140;16.304;2022-12-16T08:55:18;13.48;;;4.85;;
69854;SDS011;57146;48.140;16.304;2022-12-16T08:57:52;13.57;;;4.70;;
69854;SDS011;57146;48.140;16.304;2022-12-16T09:00:20;11.70;;;4.10;;
69854;SDS011;57146;48.140;16.304;2022-12-16T09:02:56;11.37;;;3.77;;
69854;SDS011;57146;48.140;16.304;2022-12-16T09:05:24;11.63;;;3.67;;
69854;SDS011;57146;48.140;16.304;2022-12-16T09:07:51;9.98;;;3.58;;
69854;SDS011;57146;48.140;16.304;2022-12-16T09:10:20;11.57;;;3.53;;
69854;SDS011;57146;48.140;16.304;2022-12-16T09:12:47;11.40;;;3.55;;
69854;SDS011;57146;48.140;16.304;2022-12-16T09:15:14;8.57;;;2.87;;
69854;SDS011;57146;48.140;16.304;2022-12-16T09:17:41;11.13;;;3.25;;
69854;SDS011;57146;48.140;16.304;2022-12-16T09:20:08;11.88;;;3.40;;
69854;SDS011;57146;48.140;16.304;2022-12-16T09:22:35;11.25;;;3.35;;
69854;SDS011;57146;48.140;16.304;2022-12-16T09:25:02;9.60;;;3.25;;
69854;SDS011;57146;48.140;16.304;2022-12-16T09:27:29;10.13;;;3.50;;
69854;SDS011;57146;48.140;16.304;2022-12-16T09:29:56;13.13;;;4.25;;
69854;SDS011;57146;48.140;16.304;2022-12-16T09:32:22;10.95;;;3.95;;
69854;SDS011;57146;48.140;16.304;2022-12-16T09:34:49;11.38;;;4.07;;
69854;SDS011;57146;48.140;16.304;2022-12-16T09:37:16;11.82;;;4.80;;
69854;SDS011;57146;48.140;16.304;2022-12-16T09:39:43;14.07;;;5.00;;
69854;SDS011;57146;48.140;16.304;2022-12-16T09:45:03;14.95;;;5.07;;
69854;SDS011;57146;48.140;16.304;2022-12-16T09:50:27;14.13;;;5.10;;
69854;SDS011;57146;48.140;16.304;2022-12-16T09:52:58;14.60;;;4.90;;
69854;SDS011;57146;48.140;16.304;2022-12-16T09:55:28;14.13;;;5.30;;
69854;SDS011;57146;48.140;16.304;2022-12-16T09:57:58;14.43;;;5.25;;
69854;SDS011;57146;48.140;16.304;2022-12-16T10:00:26;12.77;;;4.60;;
69854;SDS011;57146;48.140;16.304;2022-12-16T10:02:54;14.05;;;5.15;;
69854;SDS011;57146;48.140;16.304;2022-12-16T10:05:35;14.07;;;4.83;;
69854;SDS011;57146;48.140;16.304;2022-12-16T10:08:27;14.23;;;5.10;;
69854;SDS011;57146;48.140;16.304;2022-12-16T10:11:15;11.60;;;4.25;;
69854;SDS011;57146;48.140;16.304;2022-12-16T10:16:44;13.18;;;4.60;;
69854;SDS011;57146;48.140;16.304;2022-12-16T10:19:57;10.57;;;3.73;;
69854;SDS011;57146;48.140;16.304;2022-12-16T10:22:36;13.60;;;4.38;;
69854;SDS011;57146;48.140;16.304;2022-12-16T10:25:21;13.20;;;4.60;;
69854;SDS011;57146;48.140;16.304;2022-12-16T10:27:53;11.38;;;4.50;;
69854;SDS011;57146;48.140;16.304;2022-12-16T10:30:42;11.88;;;4.35;;
69854;SDS011;57146;48.140;16.304;2022-12-16T10:33:10;10.30;;;4.10;;
69854;SDS011;57146;48.140;16.304;2022-12-16T10:35:41;11.45;;;4.78;;
69854;SDS011;57146;48.140;16.304;2022-12-16T10:41:00;12.50;;;5.07;;
69854;SDS011;57146;48.140;16.304;2022-12-16T10:43:38;13.65;;;4.78;;
69854;SDS011;57146;48.140;16.304;2022-12-16T10:46:17;13.17;;;4.73;;
69854;SDS011;57146;48.140;16.304;2022-12-16T10:48:48;15.27;;;5.50;;
69854;SDS011;57146;48.140;16.304;2022-12-16T10:51:23;13.95;;;5.40;;
69854;SDS011;57146;48.140;16.304;2022-12-16T10:53:52;13.50;;;5.55;;
69854;SDS011;57146;48.140;16.304;2022-12-16T10:59:38;14.70;;;5.13;;
69854;SDS011;57146;48.140;16.304;2022-12-16T11:02:19;15.85;;;5.30;;
69854;SDS011;57146;48.140;16.304;2022-12-16T11:04:48;14.05;;;5.30;;
69854;SDS011;57146;48.140;16.304;2022-12-16T11:07:36;16.08;;;5.55;;
69854;SDS011;57146;48.140;16.304;2022-12-16T11:10:20;13.65;;;5.45;;
69854;SDS011;57146;48.140;16.304;2022-12-16T11:12:49;14.67;;;5.67;;
69854;SDS011;57146;48.140;16.304;2022-12-16T11:15:18;15.00;;;5.60;;
69854;SDS011;57146;48.140;16.304;2022-12-16T11:18:01;14.93;;;5.82;;
69854;SDS011;57146;48.140;16.304;2022-12-16T11:20:31;15.95;;;5.60;;
69854;SDS011;57146;48.140;16.304;2022-12-16T11:25:45;14.73;;;5.70;;
69854;SDS011;57146;48.140;16.304;2022-12-16T11:28:15;15.90;;;5.93;;
69854;SDS011;57146;48.140;16.304;2022-12-16T11:30:43;16.90;;;5.95;;
69854;SDS011;57146;48.140;16.304;2022-12-16T11:35:51;16.25;;;6.03;;
69854;SDS011;57146;48.140;16.304;2022-12-16T11:38:23;16.63;;;5.73;;
69854;SDS011;57146;48.140;16.304;2022-12-16T11:41:01;15.63;;;6.15;;
69854;SDS011;57146;48.140;16.304;2022-12-16T11:43:28;15.70;;;6.28;;
69854;SDS011;57146;48.140;16.304;2022-12-16T11:45:58;15.63;;;6.45;;
69854;SDS011;57146;48.140;16.304;2022-12-16T11:48:35;15.02;;;5.88;;
69854;SDS011;57146;48.140;16.304;2022-12-16T11:51:08;16.43;;;6.37;;
69854;SDS011;57146;48.140;16.304;2022-12-16T11:53:51;16.60;;;6.53;;
69854;SDS011;57146;48.140;16.304;2022-12-16T11:56:23;16.00;;;6.07;;
69854;SDS011;57146;48.140;16.304;2022-12-16T11:58:53;18.05;;;6.25;;
69854;SDS011;57146;48.140;16.304;2022-12-16T12:01:46;14.52;;;6.00;;
69854;SDS011;57146;48.140;16.304;2022-12-16T12:04:21;16.17;;;5.80;;
69854;SDS011;57146;48.140;16.304;2022-12-16T12:09:33;15.35;;;6.22;;
69854;SDS011;57146;48.140;16.304;2022-12-16T12:12:30;16.95;;;5.85;;
69854;SDS011;57146;48.140;16.304;2022-12-16T12:15:00;14.77;;;5.85;;
69854;SDS011;57146;48.140;16.304;2022-12-16T12:22:49;16.17;;;6.28;;
69854;SDS011;57146;48.140;16.304;2022-12-16T12:25:19;17.60;;;6.90;;
69854;SDS011;57146;48.140;16.304;2022-12-16T12:30:41;16.37;;;6.67;;
69854;SDS011;57146;48.140;16.304;2022-12-16T12:33:49;16.90;;;7.03;;
69854;SDS011;57146;48.140;16.304;2022-12-16T12:36:36;15.57;;;6.57;;
69854;SDS011;57146;48.140;16.304;2022-12-16T12:39:21;19.92;;;6.57;;
69854;SDS011;57146;48.140;16.304;2022-12-16T12:44:41;17.37;;;7.00;;
69854;SDS011;57146;48.140;16.304;2022-12-16T12:47:14;15.35;;;6.00;;
69854;SDS011;57146;48.140;16.304;2022-12-16T12:49:58;17.50;;;6.70;;
69854;SDS011;57146;48.140;16.304;2022-12-16T12:55:27;17.05;;;6.75;;
69854;SDS011;57146;48.140;16.304;2022-12-16T12:58:06;15.27;;;6.07;;
69854;SDS011;57146;48.140;16.304;2022-12-16T13:00:38;16.67;;;6.15;;
69854;SDS011;57146;48.140;16.304;2022-12-16T13:03:23;19.85;;;7.60;;
69854;SDS011;57146;48.140;16.304;2022-12-16T13:06:05;16.77;;;6.35;;
69854;SDS011;57146;48.140;16.304;2022-12-16T13:11:17;19.70;;;7.30;;
69854;SDS011;57146;48.140;16.304;2022-12-16T13:13:43;17.60;;;7.15;;
69854;SDS011;57146;48.140;16.304;2022-12-16T13:16:11;17.48;;;7.07;;
69854;SDS011;57146;48.140;16.304;2022-12-16T13:18:38;20.88;;;7.82;;
69854;SDS011;57146;48.140;16.304;2022-12-16T13:21:41;21.48;;;8.20;;
69854;SDS011;57146;48.140;16.304;2022-12-16T13:24:10;19.27;;;7.60;;
69854;SDS011;57146;48.140;16.304;2022-12-16T13:27:00;18.63;;;7.30;;
69854;SDS011;57146;48.140;16.304;2022-12-16T13:29:28;19.85;;;7.57;;
69854;SDS011;57146;48.140;16.304;2022-12-16T13:32:10;19.38;;;7.22;;
69854;SDS011;57146;48.140;16.304;2022-12-16T13:34:43;19.38;;;7.90;;
69854;SDS011;57146;48.140;16.304;2022-12-16T13:37:18;19.90;;;7.57;;
69854;SDS011;57146;48.140;16.304;2022-12-16T13:40:05;18.85;;;7.32;;
69854;SDS011;57146;48.140;16.304;2022-12-16T13:48:02;20.63;;;8.02;;
69854;SDS011;57146;48.140;16.304;2022-12-16T13:53:13;17.48;;;7.47;;
69854;SDS011;57146;48.140;16.304;2022-12-16T13:55:47;20.33;;;7.60;;
69854;SDS011;57146;48.140;16.304;2022-12-16T14:01:13;19.77;;;7.78;;
69854;SDS011;57146;48.140;16.304;2022-12-16T14:03:46;21.67;;;8.23;;
69854;SDS011;57146;48.140;16.304;2022-12-16T14:06:18;20.90;;;8.45;;
69854;SDS011;57146;48.140;16.304;2022-12-16T14:08:48;21.02;;;8.18;;
69854;SDS011;57146;48.140;16.304;2022-12-16T14:11:26;20.88;;;8.10;;
69854;SDS011;57146;48.140;16.304;2022-12-16T14:14:23;20.20;;;8.32;;
69854;SDS011;57146;48.140;16.304;2022-12-16T14:16:58;18.30;;;8.23;;
69854;SDS011;57146;48.140;16.304;2022-12-16T14:19:33;20.95;;;8.60;;
69854;SDS011;57146;48.140;16.304;2022-12-16T14:24:49;22.13;;;8.60;;
69854;SDS011;57146;48.140;16.304;2022-12-16T14:27:18;19.95;;;8.05;;
69854;SDS011;57146;48.140;16.304;2022-12-16T14:29:47;24.37;;;8.87;;
69854;SDS011;57146;48.140;16.304;2022-12-16T14:32:28;21.75;;;8.20;;
69854;SDS011;57146;48.140;16.304;2022-12-16T14:35:00;23.58;;;9.27;;
69854;SDS011;57146;48.140;16.304;2022-12-16T14:37:34;23.67;;;9.38;;
69854;SDS011;57146;48.140;16.304;2022-12-16T14:40:02;24.52;;;9.13;;
69854;SDS011;57146;48.140;16.304;2022-12-16T14:42:43;28.20;;;9.80;;
69854;SDS011;57146;48.140;16.304;2022-12-16T14:47:46;24.52;;;9.40;;
69854;SDS011;57146;48.140;16.304;2022-12-16T14:53:04;31.05;;;10.75;;
69854;SDS011;57146;48.140;16.304;2022-12-16T14:55:38;27.73;;;10.37;;
69854;SDS011;57146;48.140;16.304;2022-12-16T15:00:35;26.27;;;9.95;;
69854;SDS011;57146;48.140;16.304;2022-12-16T15:03:17;26.23;;;10.10;;
69854;SDS011;57146;48.140;16.304;2022-12-16T15:05:51;27.42;;;10.23;;
69854;SDS011;57146;48.140;16.304;2022-12-16T15:08:21;29.00;;;10.73;;
69854;SDS011;57146;48.140;16.304;2022-12-16T15:10:50;29.13;;;11.10;;
69854;SDS011;57146;48.140;16.304;2022-12-16T15:13:18;29.35;;;11.05;;
69854;SDS011;57146;48.140;16.304;2022-12-16T15:15:46;29.48;;;10.52;;
69854;SDS011;57146;48.140;16.304;2022-12-16T15:18:18;30.77;;;10.45;;
69854;SDS011;57146;48.140;16.304;2022-12-16T15:20:52;29.80;;;10.93;;
69854;SDS011;57146;48.140;16.304;2022-12-16T15:23:25;31.95;;;11.50;;
69854;SDS011;57146;48.140;16.304;2022-12-16T15:25:54;32.40;;;11.80;;
69854;SDS011;57146;48.140;16.304;2022-12-16T15:28:39;30.92;;;11.15;;
69854;SDS011;57146;48.140;16.304;2022-12-16T15:31:12;33.83;;;11.80;;
69854;SDS011;57146;48.140;16.304;2022-12-16T15:33:40;33.13;;;11.70;;
69854;SDS011;57146;48.140;16.304;2022-12-16T15:36:23;32.63;;;12.15;;
69854;SDS011;57146;48.140;16.304;2022-12-16T15:38:57;32.80;;;11.60;;
69854;SDS011;57146;48.140;16.304;2022-12-16T15:41:34;35.45;;;12.13;;
69854;SDS011;57146;48.140;16.304;2022-12-16T15:44:03;35.63;;;12.57;;
69854;SDS011;57146;48.140;16.304;2022-12-16T15:46:30;35.70;;;12.07;;
69854;SDS011;57146;48.140;16.304;2022-12-16T15:48:58;35.33;;;12.05;;
69854;SDS011;57146;48.140;16.304;2022-12-16T15:54:00;38.08;;;12.10;;
69854;SDS011;57146;48.140;16.304;2022-12-16T15:56:32;35.88;;;11.70;;
69854;SDS011;57146;48.140;16.304;2022-12-16T15:59:12;36.87;;;12.90;;
69854;SDS011;57146;48.140;16.304;2022-12-16T16:01:50;36.75;;;12.88;;
69854;SDS011;57146;48.140;16.304;2022-12-16T16:04:21;37.65;;;12.55;;
69854;SDS011;57146;48.140;16.304;2022-12-16T16:06:52;40.22;;;12.80;;
69854;SDS011;57146;48.140;16.304;2022-12-16T16:11:45;41.50;;;13.63;;
69854;SDS011;57146;48.140;16.304;2022-12-16T16:14:12;41.95;;;13.07;;
69854;SDS011;57146;48.140;16.304;2022-12-16T16:16:40;40.72;;;13.38;;
69854;SDS011;57146;48.140;16.304;2022-12-16T16:19:15;40.65;;;13.38;;
69854;SDS011;57146;48.140;16.304;2022-12-16T16:21:52;41.15;;;13.52;;
69854;SDS011;57146;48.140;16.304;2022-12-16T16:24:18;37.47;;;12.67;;
69854;SDS011;57146;48.140;16.304;2022-12-16T16:26:45;38.80;;;13.57;;
69854;SDS011;57146;48.140;16.304;2022-12-16T16:29:13;38.63;;;13.13;;
69854;SDS011;57146;48.140;16.304;2022-12-16T16:31:40;39.45;;;13.43;;